createdAt,value
2022-10-24T00:01:33.604Z,96298.72
2022-10-24T00:04:01.659Z,96303.56
2022-10-24T00:06:29.621Z,96298.72
2022-10-24T00:08:57.475Z,96309.03
2022-10-24T00:11:28.790Z,96299.50
2022-10-24T00:13:59.604Z,96310.81
2022-10-24T00:16:28.283Z,96304.94
2022-10-24T00:18:57.588Z,96301.59
2022-10-24T00:21:25.467Z,96315.25
2022-10-24T00:23:53.563Z,96311.91
2022-10-24T00:26:21.582Z,96320.22
2022-10-24T00:28:49.599Z,96314.22
2022-10-24T00:31:20.290Z,96322.84
2022-10-24T00:33:48.573Z,96320.34
2022-10-24T00:36:21.278Z,96318.16
2022-10-24T00:38:49.891Z,96313.81
2022-10-24T00:41:19.919Z,96307.31
2022-10-24T00:43:47.872Z,96311.94
2022-10-24T00:46:17.603Z,96304.97
2022-10-24T00:48:48.166Z,96316.59
2022-10-24T00:51:24.538Z,96328.56
2022-10-24T00:53:55.003Z,96327.34
2022-10-24T00:56:26.478Z,96332.31
2022-10-24T00:58:55.781Z,96331.41
2022-10-24T01:01:26.046Z,96324.59
2022-10-24T01:03:54.277Z,96326.16
2022-10-24T01:06:37.250Z,96334.16
2022-10-24T01:09:18.754Z,96339.09
2022-10-24T01:11:56.178Z,96329.75
2022-10-24T01:14:34.714Z,96335.53
2022-10-24T01:17:08.911Z,96332.50
2022-10-24T01:20:03.440Z,96344.97
2022-10-24T01:22:39.168Z,96340.63
2022-10-24T01:25:15.036Z,96338.59
2022-10-24T01:27:58.012Z,96344.38
2022-10-24T01:36:49.045Z,96327.13
2022-10-24T01:39:21.838Z,96315.91
2022-10-24T01:41:50.855Z,96323.19
2022-10-24T01:44:24.881Z,96324.84
2022-10-24T01:46:58.665Z,96337.47
2022-10-24T01:49:32.462Z,96339.84
2022-10-24T01:52:08.389Z,96324.53
2022-10-24T01:54:38.463Z,96325.09
2022-10-24T01:57:06.632Z,96331.78
2022-10-24T01:59:46.422Z,96342.41
2022-10-24T02:02:19.444Z,96337.91
2022-10-24T02:04:52.664Z,96346.59
2022-10-24T02:07:24.068Z,96348.25
2022-10-24T02:09:56.213Z,96342.78
2022-10-24T02:12:26.726Z,96350.75
2022-10-24T02:14:59.695Z,96346.25
2022-10-24T02:19:57.441Z,96335.16
2022-10-24T02:22:31.414Z,96336.38
2022-10-24T02:25:03.629Z,96327.91
2022-10-24T02:27:38.742Z,96320.94
2022-10-24T02:30:10.382Z,96312.34
2022-10-24T02:32:41.519Z,96310.53
2022-10-24T02:35:12.083Z,96307.53
2022-10-24T02:37:47.550Z,96300.38
2022-10-24T02:40:17.666Z,96301.25
2022-10-24T02:42:48.023Z,96288.09
2022-10-24T02:45:17.315Z,96283.25
2022-10-24T02:47:46.545Z,96306.03
2022-10-24T02:50:15.014Z,96302.53
2022-10-24T02:52:45.099Z,96295.53
2022-10-24T02:55:13.733Z,96307.19
2022-10-24T02:57:41.619Z,96311.50
2022-10-24T03:00:10.978Z,96307.03
2022-10-24T03:02:39.220Z,96303.38
2022-10-24T03:05:07.861Z,96305.88
2022-10-24T03:07:35.750Z,96311.34
2022-10-24T03:10:05.972Z,96315.19
2022-10-24T03:12:33.878Z,96312.28
2022-10-24T03:15:01.753Z,96309.44
2022-10-24T03:17:29.623Z,96310.13
2022-10-24T03:19:57.504Z,96329.63
2022-10-24T03:22:29.872Z,96329.66
2022-10-24T03:25:01.868Z,96333.00
2022-10-24T03:27:31.352Z,96342.81
2022-10-24T03:29:59.308Z,96342.28
2022-10-24T03:35:00.038Z,96323.50
2022-10-24T03:37:28.232Z,96314.69
2022-10-24T03:39:56.465Z,96318.19
2022-10-24T03:42:24.922Z,96308.38
2022-10-24T03:44:54.212Z,96307.53
2022-10-24T03:47:22.088Z,96303.88
2022-10-24T03:49:50.070Z,96300.72
2022-10-24T03:52:18.316Z,96308.69
2022-10-24T03:54:46.219Z,96314.00
2022-10-24T03:57:14.278Z,96307.53
2022-10-24T03:59:42.252Z,96313.53
2022-10-24T04:02:13.352Z,96326.00
2022-10-24T04:04:41.992Z,96328.00
2022-10-24T04:07:09.966Z,96333.31
2022-10-24T04:09:38.027Z,96332.16
2022-10-24T04:12:06.535Z,96329.66
2022-10-24T04:14:34.386Z,96341.13
2022-10-24T04:17:02.348Z,96329.97
2022-10-24T04:19:31.547Z,96336.97
2022-10-24T04:21:59.742Z,96334.97
2022-10-24T04:24:27.909Z,96323.31
2022-10-24T04:26:55.828Z,96317.19
2022-10-24T04:29:23.896Z,96296.88
2022-10-24T04:31:51.747Z,96299.38
2022-10-24T04:34:19.626Z,96302.22
2022-10-24T04:36:48.889Z,96298.72
2022-10-24T04:39:17.040Z,96307.81
2022-10-24T04:41:44.891Z,96311.34
2022-10-24T04:44:12.927Z,96322.34
2022-10-24T04:46:40.767Z,96318.69
2022-10-24T04:49:09.996Z,96321.19
2022-10-24T04:51:38.014Z,96322.72
2022-10-24T04:54:08.620Z,96323.41
2022-10-24T04:56:36.481Z,96319.44
2022-10-24T04:59:04.831Z,96322.78
2022-10-24T05:01:33.282Z,96313.78
2022-10-24T05:06:34.286Z,96308.13
2022-10-24T05:09:02.138Z,96315.97
2022-10-24T05:11:31.859Z,96323.81
2022-10-24T05:13:59.779Z,96328.28
2022-10-24T05:16:27.692Z,96323.50
2022-10-24T05:18:55.625Z,96324.84
2022-10-24T05:21:23.547Z,96336.31
2022-10-24T05:23:51.462Z,96342.47
2022-10-24T05:26:19.335Z,96354.28
2022-10-24T05:28:51.653Z,96357.94
2022-10-24T05:31:20.988Z,96354.44
2022-10-24T05:33:48.977Z,96357.28
2022-10-24T05:36:16.844Z,96352.25
2022-10-24T05:38:44.783Z,96351.41
2022-10-24T05:41:12.707Z,96352.41
2022-10-24T05:43:40.647Z,96346.22
2022-10-24T05:46:10.187Z,96339.25
2022-10-24T05:48:38.101Z,96344.56
2022-10-24T05:51:06.343Z,96353.56
2022-10-24T05:53:34.251Z,96374.09
2022-10-24T05:56:02.187Z,96338.44
2022-10-24T05:58:30.030Z,96352.09
2022-10-24T06:00:57.994Z,96343.13
2022-10-24T06:03:27.276Z,96351.25
2022-10-24T06:05:55.212Z,96360.06
2022-10-24T06:08:23.210Z,96369.38
2022-10-24T06:10:52.267Z,96373.69
2022-10-24T06:13:20.252Z,96376.13
2022-10-24T06:15:48.183Z,96368.28
2022-10-24T06:18:16.112Z,96365.47
2022-10-24T06:20:45.310Z,96359.84
2022-10-24T06:23:13.368Z,96358.66
2022-10-24T06:25:41.952Z,96358.66
2022-10-24T06:28:12.140Z,96359.66
2022-10-24T06:30:41.020Z,96376.25
2022-10-24T06:33:08.936Z,96387.59
2022-10-24T06:35:37.128Z,96390.94
2022-10-24T06:38:06.410Z,96389.56
2022-10-24T06:40:34.422Z,96373.59
2022-10-24T06:43:02.339Z,96378.25
2022-10-24T06:45:30.339Z,96385.38
2022-10-24T06:47:58.239Z,96387.22
2022-10-24T06:50:26.340Z,96385.69
2022-10-24T06:52:54.226Z,96406.97
2022-10-24T06:55:23.481Z,96407.28
2022-10-24T06:57:52.088Z,96413.59
2022-10-24T07:00:20.308Z,96395.72
2022-10-24T07:02:48.267Z,96404.09
2022-10-24T07:05:16.203Z,96403.41
2022-10-24T07:07:45.202Z,96408.72
2022-10-24T07:10:14.811Z,96419.34
2022-10-24T07:12:44.491Z,96425.69
2022-10-24T07:15:13.244Z,96427.34
2022-10-24T07:17:41.533Z,96419.53
2022-10-24T07:20:10.391Z,96412.38
2022-10-24T07:22:38.632Z,96413.19
2022-10-24T07:25:08.066Z,96407.75
2022-10-24T07:27:36.095Z,96417.38
2022-10-24T07:30:06.453Z,96426.06
2022-10-24T07:32:34.988Z,96416.09
2022-10-24T07:35:02.957Z,96418.75
2022-10-24T07:37:30.885Z,96417.09
2022-10-24T07:39:58.812Z,96432.06
2022-10-24T07:42:26.708Z,96424.91
2022-10-24T07:44:54.725Z,96431.91
2022-10-24T07:47:23.991Z,96434.41
2022-10-24T07:49:51.944Z,96452.34
2022-10-24T07:52:19.803Z,96452.19
2022-10-24T07:54:47.687Z,96450.69
2022-10-24T07:57:15.673Z,96446.19
2022-10-24T07:59:43.613Z,96450.53
2022-10-24T08:02:12.363Z,96451.38
2022-10-24T08:04:42.043Z,96446.88
2022-10-24T08:07:13.418Z,96400.13
2022-10-24T08:09:43.136Z,96369.88
2022-10-24T08:12:11.634Z,96376.75
2022-10-24T08:14:40.512Z,96420.66
2022-10-24T08:17:08.769Z,96409.19
2022-10-24T08:19:43.667Z,96401.34
2022-10-24T08:22:13.847Z,96409.19
2022-10-24T08:24:43.229Z,96398.53
2022-10-24T08:27:11.589Z,96400.19
2022-10-24T08:29:39.816Z,96400.06
2022-10-24T08:32:07.901Z,96411.94
2022-10-24T08:34:35.907Z,96409.28
2022-10-24T08:37:04.671Z,96404.59
2022-10-24T08:39:33.862Z,96408.28
2022-10-24T08:42:05.276Z,96417.75
2022-10-24T08:44:36.883Z,96419.59
2022-10-24T08:47:12.019Z,96412.44
2022-10-24T08:49:46.521Z,96418.78
2022-10-24T08:52:25.004Z,96409.94
2022-10-24T08:54:56.452Z,96401.13
2022-10-24T08:57:29.236Z,96399.16
2022-10-24T09:00:01.179Z,96400.97
2022-10-24T09:02:34.403Z,96404.31
2022-10-24T09:05:10.687Z,96403.47
2022-10-24T09:07:39.554Z,96412.31
2022-10-24T09:10:17.679Z,96407.81
2022-10-24T09:12:45.621Z,96425.59
2022-10-24T09:15:17.146Z,96437.59
2022-10-24T09:17:46.221Z,96445.56
2022-10-24T09:20:22.692Z,96448.91
2022-10-24T09:22:50.684Z,96442.91
2022-10-24T09:25:23.589Z,96443.59
2022-10-24T09:27:52.222Z,96445.44
2022-10-24T09:30:28.542Z,96455.97
2022-10-24T09:33:02.990Z,96451.59
2022-10-24T09:35:35.361Z,96449.94
2022-10-24T09:38:28.401Z,96450.66
2022-10-24T09:41:00.873Z,96451.34
2022-10-24T09:43:34.652Z,96455.97
2022-10-24T09:46:05.608Z,96456.22
2022-10-24T09:48:40.743Z,96460.56
2022-10-24T09:51:09.344Z,96449.09
2022-10-24T09:53:41.025Z,96447.97
2022-10-24T09:56:15.562Z,96454.13
2022-10-24T09:58:44.030Z,96455.78
2022-10-24T10:01:22.817Z,96459.31
2022-10-24T10:04:08.405Z,96462.34
2022-10-24T10:06:45.934Z,96452.53
2022-10-24T10:09:16.122Z,96455.06
2022-10-24T10:12:00.680Z,96458.41
2022-10-24T10:14:30.847Z,96456.72
2022-10-24T10:17:03.659Z,96456.09
2022-10-24T10:19:37.139Z,96449.78
2022-10-24T10:22:07.183Z,96444.13
2022-10-24T10:24:39.941Z,96448.50
2022-10-24T10:27:30.369Z,96450.84
2022-10-24T10:30:18.426Z,96455.34
2022-10-24T10:32:57.826Z,96457.53
2022-10-24T10:35:33.257Z,96464.50
2022-10-24T10:38:14.845Z,96462.72
2022-10-24T10:40:47.862Z,96459.88
2022-10-24T10:43:30.106Z,96473.50
2022-10-24T10:46:14.042Z,96483.00
2022-10-24T10:48:55.040Z,96482.50
2022-10-24T10:51:29.704Z,96488.78
2022-10-24T10:54:08.373Z,96490.63
2022-10-24T10:56:44.139Z,96494.78
2022-10-24T10:59:33.734Z,96500.13
2022-10-24T11:02:13.257Z,96492.13
2022-10-24T11:04:49.403Z,96494.94
2022-10-24T11:07:27.201Z,96495.81
2022-10-24T11:09:59.289Z,96485.97
2022-10-24T11:12:32.179Z,96497.31
2022-10-24T11:15:07.749Z,96497.47
2022-10-24T11:17:42.209Z,96490.31
2022-10-24T11:20:19.015Z,96487.50
2022-10-24T11:22:51.861Z,96485.81
2022-10-24T11:25:26.322Z,96481.03
2022-10-24T11:28:04.673Z,96483.38
2022-10-24T11:30:45.521Z,96476.22
2022-10-24T11:33:20.040Z,96479.06
2022-10-24T11:36:02.870Z,96472.25
2022-10-24T11:38:33.550Z,96463.31
2022-10-24T11:41:19.379Z,96462.28
2022-10-24T11:43:49.943Z,96463.66
2022-10-24T11:46:23.419Z,96465.50
2022-10-24T11:48:57.218Z,96468.66
2022-10-24T11:51:34.089Z,96460.22
2022-10-24T11:54:06.252Z,96460.06
2022-10-24T11:56:40.262Z,96455.72
2022-10-24T11:59:13.352Z,96460.91
2022-10-24T12:02:01.647Z,96456.41
2022-10-24T12:05:09.315Z,96440.44
2022-10-24T12:08:11.806Z,96439.44
2022-10-24T12:11:01.381Z,96426.78
2022-10-24T12:13:48.631Z,96421.47
2022-10-24T12:16:29.959Z,96420.81
2022-10-24T12:19:02.429Z,96415.47
2022-10-24T12:21:39.432Z,96417.97
2022-10-24T12:24:20.320Z,96425.81
2022-10-24T12:26:56.883Z,96422.31
2022-10-24T12:29:27.258Z,96418.50
2022-10-24T12:31:56.003Z,96414.84
2022-10-24T12:34:48.859Z,96412.03
2022-10-24T12:37:37.577Z,96417.19
2022-10-24T12:40:52.695Z,96416.19
2022-10-24T12:43:32.985Z,96418.72
2022-10-24T12:46:09.414Z,96414.03
2022-10-24T12:48:43.040Z,96429.88
2022-10-24T12:51:32.552Z,96441.56
2022-10-24T12:54:03.581Z,96440.59
2022-10-24T12:56:32.965Z,96430.28
2022-10-24T12:59:17.882Z,96435.28
2022-10-24T13:01:47.217Z,96440.28
2022-10-24T13:04:48.628Z,96435.97
2022-10-24T13:07:54.996Z,96431.66
2022-10-24T13:10:43.763Z,96432.47
2022-10-24T13:13:34.407Z,96431.31
2022-10-24T13:16:08.374Z,96433.66
2022-10-24T13:18:50.611Z,96429.16
2022-10-24T13:21:26.444Z,96426.19
2022-10-24T13:24:11.972Z,96432.69
2022-10-24T13:26:42.414Z,96424.50
2022-10-24T13:29:16.249Z,96424.50
2022-10-24T13:31:50.792Z,96424.22
2022-10-24T13:34:24.902Z,96421.38
2022-10-24T13:37:01.103Z,96427.03
2022-10-24T13:39:37.543Z,96428.00
2022-10-24T13:42:19.953Z,96429.69
2022-10-24T13:44:59.299Z,96427.53
2022-10-24T13:47:31.352Z,96430.66
2022-10-24T13:50:02.220Z,96436.66
2022-10-24T13:52:39.337Z,96444.53
2022-10-24T13:55:21.794Z,96443.38
2022-10-24T13:57:56.324Z,96450.69
2022-10-24T14:00:27.930Z,96456.00
2022-10-24T14:02:59.683Z,96454.34
2022-10-24T14:05:32.620Z,96452.53
2022-10-24T14:08:02.527Z,96446.34
2022-10-24T14:10:32.553Z,96444.66
2022-10-24T14:13:01.582Z,96441.84
2022-10-24T14:15:32.050Z,96441.03
2022-10-24T14:18:02.473Z,96437.53
2022-10-24T14:20:34.007Z,96445.69
2022-10-24T14:23:02.748Z,96444.66
2022-10-24T14:25:36.313Z,96448.34
2022-10-24T14:28:12.593Z,96443.16
2022-10-24T14:30:41.046Z,96443.00
2022-10-24T14:33:22.334Z,96445.34
2022-10-24T14:35:55.134Z,96440.03
2022-10-24T14:38:27.092Z,96440.84
2022-10-24T14:41:08.277Z,96450.88
2022-10-24T14:43:42.044Z,96447.88
2022-10-24T14:46:34.422Z,96455.88
2022-10-24T14:49:20.738Z,96449.72
2022-10-24T14:54:21.401Z,96455.34
2022-10-24T14:56:53.757Z,96458.00
2022-10-24T14:59:27.332Z,96462.81
2022-10-24T15:01:57.714Z,96456.81
2022-10-24T15:04:38.897Z,96448.13
2022-10-24T15:07:28.378Z,96436.97
2022-10-24T15:13:13.613Z,96435.91
2022-10-24T15:15:52.251Z,96444.22
2022-10-24T15:18:23.560Z,96435.72
2022-10-24T15:20:54.402Z,96438.53
2022-10-24T15:23:27.393Z,96450.50
2022-10-24T15:26:04.260Z,96440.16
2022-10-24T15:28:39.680Z,96442.28
2022-10-24T15:31:11.328Z,96448.09
2022-10-24T15:36:22.883Z,96448.72
2022-10-24T15:38:55.871Z,96457.69
2022-10-24T15:41:24.026Z,96462.38
2022-10-24T15:43:53.334Z,96467.00
2022-10-24T15:46:22.991Z,96469.97
2022-10-24T15:48:51.159Z,96469.97
2022-10-24T15:51:21.864Z,96462.97
2022-10-24T15:54:22.725Z,96455.00
2022-10-24T15:56:50.921Z,96460.31
2022-10-24T15:59:20.386Z,96454.00
2022-10-24T16:01:52.024Z,96455.13
2022-10-24T16:04:21.540Z,96461.78
2022-10-24T16:06:49.624Z,96455.78
2022-10-24T16:09:19.545Z,96464.59
2022-10-24T16:11:48.294Z,96459.59
2022-10-24T16:14:18.552Z,96460.03
2022-10-24T16:16:48.449Z,96462.31
2022-10-24T16:19:16.481Z,96460.78
2022-10-24T16:21:44.933Z,96456.47
2022-10-24T16:24:13.958Z,96463.25
2022-10-24T16:26:42.289Z,96468.03
2022-10-24T16:29:10.235Z,96484.59
2022-10-24T16:31:38.744Z,96485.47
2022-10-24T16:34:08.918Z,96488.72
2022-10-24T16:36:37.137Z,96506.34
2022-10-24T16:39:05.204Z,96509.28
2022-10-24T16:41:33.794Z,96505.69
2022-10-24T16:44:02.501Z,96502.06
2022-10-24T16:46:30.492Z,96505.03
2022-10-24T16:48:58.540Z,96511.63
2022-10-24T16:51:32.029Z,96493.72
2022-10-24T16:54:00.973Z,96507.47
2022-10-24T16:56:29.772Z,96505.38
2022-10-24T16:58:57.693Z,96498.25
2022-10-24T17:01:27.549Z,96495.34
2022-10-24T17:03:56.032Z,96493.53
2022-10-24T17:06:24.140Z,96487.53
2022-10-24T17:08:53.774Z,96490.50
2022-10-24T17:11:43.728Z,96497.22
2022-10-24T17:14:10.102Z,96513.31
2022-10-24T17:16:38.282Z,96513.78
2022-10-24T17:19:15.574Z,96506.78
2022-10-24T17:21:46.803Z,96511.41
2022-10-24T17:24:18.593Z,96518.56
2022-10-24T17:26:46.743Z,96515.50
2022-10-24T17:29:18.879Z,96507.81
2022-10-24T17:31:47.077Z,96513.59
2022-10-24T17:34:15.204Z,96511.06
2022-10-24T17:36:47.531Z,96513.34
2022-10-24T17:41:54.621Z,96519.19
2022-10-24T17:44:22.975Z,96531.50
2022-10-24T17:46:54.616Z,96528.84
2022-10-24T17:49:26.374Z,96514.56
2022-10-24T17:51:54.310Z,96513.72
2022-10-24T17:54:23.769Z,96542.13
2022-10-24T17:56:51.729Z,96561.13
2022-10-24T17:59:21.893Z,96584.91
2022-10-24T18:01:49.842Z,96643.38
2022-10-24T18:04:18.030Z,96694.91
2022-10-24T18:06:46.176Z,96700.94
2022-10-24T18:09:14.124Z,96702.31
2022-10-24T18:11:43.377Z,96699.31
2022-10-24T18:14:11.280Z,96699.88
2022-10-24T18:16:39.968Z,96695.50
2022-10-24T18:19:08.427Z,96676.94
2022-10-24T18:21:36.532Z,96668.13
2022-10-24T18:24:06.986Z,96670.19
2022-10-24T18:26:35.357Z,96667.69
2022-10-24T18:29:04.794Z,96666.72
2022-10-24T18:31:34.029Z,96655.53
2022-10-24T18:34:06.226Z,96656.75
2022-10-24T18:36:36.961Z,96665.66
2022-10-24T18:39:05.539Z,96665.66
2022-10-24T18:41:43.966Z,96667.06
2022-10-24T18:44:24.659Z,96673.78
2022-10-24T18:46:54.263Z,96677.53
2022-10-24T18:49:23.023Z,96672.25
2022-10-24T18:51:58.441Z,96658.28
2022-10-24T18:54:27.028Z,96670.81
2022-10-24T18:56:57.088Z,96683.50
2022-10-24T18:59:26.621Z,96692.88
2022-10-24T19:02:07.312Z,96708.22
2022-10-24T19:04:39.536Z,96715.31
2022-10-24T19:07:09.872Z,96699.78
2022-10-24T19:09:40.176Z,96690.19
2022-10-24T19:12:09.518Z,96686.28
2022-10-24T19:14:39.855Z,96675.69
2022-10-24T19:17:07.935Z,96659.78
2022-10-24T19:19:35.903Z,96645.94
2022-10-24T19:22:04.208Z,96663.00
2022-10-24T19:24:32.393Z,96638.41
2022-10-24T19:27:00.298Z,96636.03
2022-10-24T19:29:28.261Z,96627.09
2022-10-24T19:31:58.588Z,96635.22
2022-10-24T19:34:28.291Z,96640.22
2022-10-24T19:36:57.473Z,96627.25
2022-10-24T19:39:28.161Z,96618.47
2022-10-24T19:41:58.277Z,96617.44
2022-10-24T19:44:26.203Z,96618.88
2022-10-24T19:46:54.146Z,96617.75
2022-10-24T19:49:23.433Z,96618.00
2022-10-24T19:51:52.032Z,96614.28
2022-10-24T19:54:19.984Z,96629.47
2022-10-24T19:56:49.483Z,96647.75
2022-10-24T19:59:17.743Z,96664.38
2022-10-24T20:01:45.787Z,96677.47
2022-10-24T20:04:14.208Z,96701.94
2022-10-24T20:06:46.397Z,96704.97
2022-10-24T20:09:18.592Z,96708.03
2022-10-24T20:11:48.203Z,96702.84
2022-10-24T20:14:16.523Z,96715.53
2022-10-24T20:16:44.577Z,96713.84
2022-10-24T20:19:12.705Z,96726.16
2022-10-24T20:21:40.959Z,96730.72
2022-10-24T20:24:11.226Z,96736.47
2022-10-24T20:26:39.124Z,96735.91
2022-10-24T20:29:07.313Z,96722.78
2022-10-24T20:31:38.348Z,96732.00
2022-10-24T20:34:09.953Z,96720.00
2022-10-24T20:36:39.744Z,96705.22
2022-10-24T20:39:09.119Z,96705.78
2022-10-24T20:41:39.285Z,96706.75
2022-10-24T20:44:07.618Z,96674.78
2022-10-24T20:46:36.199Z,96677.28
2022-10-24T20:49:04.629Z,96688.72
2022-10-24T20:51:32.632Z,96679.66
2022-10-24T20:54:00.845Z,96682.00
2022-10-24T20:56:28.806Z,96677.28
2022-10-24T20:58:58.601Z,96682.84
2022-10-24T21:01:28.647Z,96694.25
2022-10-24T21:03:57.907Z,96696.63
2022-10-24T21:06:27.634Z,96699.38
2022-10-24T21:08:57.851Z,96711.09
2022-10-24T21:11:28.398Z,96706.19
2022-10-24T21:13:59.623Z,96715.34
2022-10-24T21:16:29.478Z,96711.75
2022-10-24T21:18:58.387Z,96722.25
2022-10-24T21:21:27.049Z,96719.84
2022-10-24T21:23:56.863Z,96726.84
2022-10-24T21:26:26.684Z,96732.97
2022-10-24T21:28:59.476Z,96736.72
2022-10-24T21:31:44.073Z,96737.94
2022-10-24T21:34:12.226Z,96740.16
2022-10-24T21:36:40.051Z,96735.34
2022-10-24T21:39:08.022Z,96737.41
2022-10-24T21:41:35.942Z,96743.09
2022-10-24T21:44:03.777Z,96744.47
2022-10-24T21:46:33.260Z,96744.84
2022-10-24T21:49:02.793Z,96741.47
2022-10-24T21:51:33.603Z,96746.03
2022-10-24T21:54:04.475Z,96750.88
2022-10-24T21:56:35.273Z,96744.16
2022-10-24T21:59:05.878Z,96742.72
2022-10-24T22:01:36.321Z,96746.06
2022-10-24T22:04:07.398Z,96751.63
2022-10-24T22:06:36.834Z,96743.94
2022-10-24T22:09:06.822Z,96757.41
2022-10-24T22:11:36.996Z,96755.75
2022-10-24T22:14:05.808Z,96763.91
2022-10-24T22:16:34.671Z,96763.22
2022-10-24T22:19:04.096Z,96761.41
2022-10-24T22:21:36.167Z,96755.41
2022-10-24T22:26:40.580Z,96761.78
2022-10-24T22:29:10.408Z,96757.56
2022-10-24T22:31:39.243Z,96756.38
2022-10-24T22:34:08.435Z,96767.09
2022-10-24T22:36:47.727Z,96768.19
2022-10-24T22:39:18.471Z,96771.31
2022-10-24T22:41:47.617Z,96766.16
2022-10-24T22:44:17.826Z,96762.78
2022-10-24T22:47:03.488Z,96770.97
2022-10-24T22:49:41.373Z,96767.81
2022-10-24T22:52:12.212Z,96771.56
2022-10-24T22:54:40.943Z,96767.25
2022-10-24T22:57:09.836Z,96772.06
2022-10-24T22:59:38.405Z,96780.09
2022-10-24T23:02:14.896Z,96775.78
2022-10-24T23:04:52.332Z,96782.38
2022-10-24T23:07:28.026Z,96780.72
2022-10-24T23:09:56.116Z,96781.91
2022-10-24T23:12:24.935Z,96785.28
2022-10-24T23:14:53.599Z,96785.03
2022-10-24T23:17:24.806Z,96790.94
2022-10-24T23:19:54.181Z,96789.59
2022-10-24T23:22:26.318Z,96799.22
2022-10-24T23:24:56.332Z,96799.94
2022-10-24T23:27:35.705Z,96797.16
2022-10-24T23:30:06.317Z,96798.00
2022-10-24T23:32:38.949Z,96793.56
2022-10-24T23:35:08.443Z,96799.09
2022-10-24T23:37:40.024Z,96795.03
2022-10-24T23:40:24.203Z,96793.09
2022-10-24T23:42:52.933Z,96799.22
2022-10-24T23:45:22.987Z,96803.16
2022-10-24T23:48:06.112Z,96796.09
2022-10-24T23:50:38.968Z,96794.50
2022-10-24T23:53:24.579Z,96797.28
2022-10-24T23:55:53.182Z,96802.69
2022-10-24T23:58:21.439Z,96806.06
